createdAt,value
2018-07-31T00:00:21.042Z,24.73
2018-07-31T00:02:50.058Z,24.70
2018-07-31T00:05:18.955Z,24.61
2018-07-31T00:07:48.132Z,24.68
2018-07-31T00:10:16.802Z,24.70
2018-07-31T00:12:45.585Z,24.68
2018-07-31T00:15:14.347Z,24.69
2018-07-31T00:17:43.203Z,24.66
2018-07-31T00:20:12.062Z,24.60
2018-07-31T00:22:40.898Z,24.60
2018-07-31T00:25:09.714Z,24.55
2018-07-31T00:27:38.587Z,24.51
2018-07-31T00:30:08.922Z,24.50
2018-07-31T00:32:37.698Z,24.44
2018-07-31T00:35:06.502Z,24.44
2018-07-31T00:37:35.853Z,24.48
2018-07-31T00:40:04.927Z,24.45
2018-07-31T00:42:33.767Z,24.40
2018-07-31T00:45:02.556Z,24.35
2018-07-31T00:47:31.423Z,24.43
2018-07-31T00:50:00.240Z,24.29
2018-07-31T00:52:29.101Z,24.30
2018-07-31T00:54:57.859Z,24.23
2018-07-31T00:57:26.667Z,24.29
2018-07-31T00:59:55.449Z,24.27
2018-07-31T01:02:24.245Z,24.19
2018-07-31T01:04:53.121Z,24.13
2018-07-31T01:07:21.929Z,24.05
2018-07-31T01:09:50.810Z,24.09
2018-07-31T01:12:19.619Z,23.98
2018-07-31T01:14:48.413Z,23.95
2018-07-31T01:17:17.327Z,23.89
2018-07-31T01:19:46.145Z,23.60
2018-07-31T01:22:14.991Z,23.73
2018-07-31T01:24:43.851Z,23.81
2018-07-31T01:27:12.662Z,23.55
2018-07-31T01:29:41.318Z,23.56
2018-07-31T01:32:10.207Z,23.51
2018-07-31T01:34:38.979Z,23.62
2018-07-31T01:37:07.623Z,23.75
2018-07-31T01:39:36.467Z,23.70
2018-07-31T01:42:05.246Z,23.74
2018-07-31T01:44:34.035Z,23.71
2018-07-31T01:47:02.653Z,23.58
2018-07-31T01:49:31.464Z,23.54
2018-07-31T01:52:00.214Z,23.50
2018-07-31T01:54:29.095Z,23.37
2018-07-31T01:56:57.758Z,23.42
2018-07-31T01:59:26.558Z,23.39
2018-07-31T02:01:55.297Z,23.28
2018-07-31T02:04:24.144Z,23.24
2018-07-31T02:06:52.990Z,23.23
2018-07-31T02:09:21.798Z,23.20
2018-07-31T02:11:50.575Z,23.17
2018-07-31T02:14:19.397Z,23.09
2018-07-31T02:16:48.076Z,23.17
2018-07-31T02:19:16.999Z,23.14
2018-07-31T02:21:45.818Z,23.01
2018-07-31T02:24:14.635Z,23.08
2018-07-31T02:26:43.475Z,23.09
2018-07-31T02:29:12.292Z,23.14
2018-07-31T02:31:40.967Z,22.98
2018-07-31T02:34:09.802Z,22.97
2018-07-31T02:36:38.611Z,22.83
2018-07-31T02:39:08.134Z,22.97
2018-07-31T02:41:37.024Z,22.83
2018-07-31T02:44:05.992Z,22.83
2018-07-31T02:46:34.856Z,22.97
2018-07-31T02:49:03.651Z,22.88
2018-07-31T02:51:32.509Z,22.85
2018-07-31T02:54:01.312Z,22.72
2018-07-31T02:56:30.236Z,22.77
2018-07-31T02:58:59.024Z,22.67
2018-07-31T03:01:27.896Z,22.60
2018-07-31T03:03:56.663Z,22.52
2018-07-31T03:06:25.525Z,22.61
2018-07-31T03:08:54.356Z,22.47
2018-07-31T03:11:23.196Z,22.46
2018-07-31T03:13:52.223Z,22.40
2018-07-31T03:16:21.165Z,22.33
2018-07-31T03:18:49.985Z,22.38
2018-07-31T03:21:19.706Z,22.17
2018-07-31T03:23:48.489Z,22.30
2018-07-31T03:26:17.671Z,22.47
2018-07-31T03:28:46.504Z,22.41
2018-07-31T03:31:15.351Z,22.15
2018-07-31T03:33:44.195Z,21.96
2018-07-31T03:36:13.047Z,21.58
2018-07-31T03:38:41.781Z,21.65
2018-07-31T03:41:10.532Z,21.69
2018-07-31T03:43:39.352Z,21.85
2018-07-31T03:46:08.173Z,21.48
2018-07-31T03:48:37.002Z,21.40
2018-07-31T03:51:05.712Z,21.36
2018-07-31T03:53:34.559Z,21.54
2018-07-31T03:56:03.380Z,21.63
2018-07-31T03:58:32.256Z,21.54
2018-07-31T04:01:01.028Z,21.67
2018-07-31T04:03:29.852Z,21.58
2018-07-31T04:05:58.610Z,21.69
2018-07-31T04:08:27.431Z,21.61
2018-07-31T04:10:56.384Z,21.64
2018-07-31T04:13:25.208Z,21.72
2018-07-31T04:15:53.982Z,21.63
2018-07-31T04:18:22.814Z,21.53
2018-07-31T04:20:51.618Z,21.32
2018-07-31T04:23:20.490Z,21.58
2018-07-31T04:25:49.365Z,21.06
2018-07-31T04:28:18.520Z,21.30
2018-07-31T04:30:47.337Z,21.49
2018-07-31T04:33:16.176Z,21.65
2018-07-31T04:35:44.864Z,21.65
2018-07-31T04:38:14.055Z,21.80
2018-07-31T04:40:42.890Z,21.78
2018-07-31T04:43:11.647Z,21.90
2018-07-31T04:45:46.457Z,22.09
2018-07-31T04:48:15.277Z,22.11
2018-07-31T04:50:44.080Z,21.92
2018-07-31T04:53:12.852Z,22.19
2018-07-31T04:55:41.656Z,22.21
2018-07-31T04:58:10.452Z,22.31
2018-07-31T05:00:39.330Z,22.08
2018-07-31T05:03:08.136Z,22.31
2018-07-31T05:05:37.000Z,22.29
2018-07-31T05:08:05.988Z,22.53
2018-07-31T05:10:34.804Z,22.60
2018-07-31T05:13:03.758Z,22.75
2018-07-31T05:15:32.606Z,22.82
2018-07-31T05:18:01.400Z,23.57
2018-07-31T05:20:30.224Z,24.03
2018-07-31T05:22:58.999Z,24.29
2018-07-31T05:25:27.862Z,24.50
2018-07-31T05:27:56.631Z,24.60
2018-07-31T05:30:25.764Z,24.47
2018-07-31T05:32:54.461Z,24.45
2018-07-31T05:35:23.207Z,24.48
2018-07-31T05:37:52.249Z,24.65
2018-07-31T05:40:21.144Z,24.17
2018-07-31T05:42:49.933Z,25.12
2018-07-31T05:45:24.835Z,25.17
2018-07-31T05:47:53.695Z,25.41
2018-07-31T05:50:22.519Z,25.57
2018-07-31T05:52:51.338Z,25.67
2018-07-31T05:55:19.978Z,25.79
2018-07-31T05:57:48.866Z,25.94
2018-07-31T06:00:17.719Z,26.07
2018-07-31T06:02:46.539Z,26.07
2018-07-31T06:05:15.362Z,26.21
2018-07-31T06:07:44.223Z,26.16
2018-07-31T06:10:12.991Z,26.06
2018-07-31T06:12:41.871Z,25.86
2018-07-31T06:15:10.719Z,25.88
2018-07-31T06:17:39.495Z,26.01
2018-07-31T06:20:16.179Z,26.33
2018-07-31T06:22:46.546Z,26.23
2018-07-31T06:25:15.399Z,26.56
2018-07-31T06:27:44.648Z,26.00
2018-07-31T06:30:14.620Z,26.74
2018-07-31T06:32:43.684Z,26.86
2018-07-31T06:35:12.714Z,26.69
2018-07-31T06:37:41.556Z,26.61
2018-07-31T06:40:10.456Z,26.79
2018-07-31T06:42:39.435Z,26.71
2018-07-31T06:45:08.364Z,26.34
2018-07-31T06:47:37.164Z,25.96
2018-07-31T06:50:06.183Z,26.08
2018-07-31T06:52:34.992Z,25.84
2018-07-31T06:55:03.936Z,26.21
2018-07-31T06:57:32.758Z,25.94
2018-07-31T07:00:01.628Z,26.45
2018-07-31T07:02:30.472Z,26.76
2018-07-31T07:04:59.222Z,27.07
2018-07-31T07:07:28.087Z,27.22
2018-07-31T07:09:57.190Z,27.39
2018-07-31T07:12:26.488Z,27.81
2018-07-31T07:14:55.279Z,26.98
2018-07-31T07:17:24.111Z,27.93
2018-07-31T07:19:52.892Z,28.36
2018-07-31T07:22:21.541Z,27.86
2018-07-31T07:24:50.416Z,27.43
2018-07-31T07:27:19.230Z,27.25
2018-07-31T07:29:48.019Z,28.38
2018-07-31T07:32:16.801Z,28.68
2018-07-31T07:34:45.635Z,29.08
2018-07-31T07:37:14.474Z,29.39
2018-07-31T07:39:43.348Z,29.07
2018-07-31T07:42:12.127Z,29.53
2018-07-31T07:44:40.943Z,29.75
2018-07-31T07:47:09.964Z,29.92
2018-07-31T07:49:39.504Z,28.60
2018-07-31T07:52:08.162Z,29.59
2018-07-31T07:54:36.998Z,29.73
2018-07-31T07:57:05.983Z,29.95
2018-07-31T07:59:35.086Z,30.15
2018-07-31T08:02:04.016Z,29.55
2018-07-31T08:04:33.116Z,28.96
2018-07-31T08:07:01.952Z,28.62
2018-07-31T08:09:30.780Z,28.63
2018-07-31T08:11:59.654Z,28.40
2018-07-31T08:14:28.603Z,28.87
2018-07-31T08:16:57.391Z,29.18
2018-07-31T08:19:26.166Z,29.13
2018-07-31T08:21:55.008Z,28.05
2018-07-31T08:24:23.807Z,28.94
2018-07-31T08:26:52.610Z,29.43
2018-07-31T08:29:21.430Z,28.82
2018-07-31T08:31:50.246Z,29.28
2018-07-31T08:34:18.915Z,28.52
2018-07-31T08:36:47.744Z,28.73
2018-07-31T08:39:16.618Z,29.15
2018-07-31T08:41:45.300Z,28.57
2018-07-31T08:44:14.069Z,29.02
2018-07-31T08:46:42.858Z,29.06
2018-07-31T08:49:11.683Z,29.33
2018-07-31T08:51:40.516Z,29.49
2018-07-31T08:54:09.348Z,29.35
2018-07-31T08:56:37.986Z,29.23
2018-07-31T08:59:06.832Z,29.56
2018-07-31T09:01:35.404Z,29.54
2018-07-31T09:04:04.371Z,29.84
2018-07-31T09:06:33.147Z,29.85
2018-07-31T09:09:02.010Z,29.70
2018-07-31T09:11:30.767Z,29.49
2018-07-31T09:13:59.600Z,29.59
2018-07-31T09:16:28.570Z,30.17
2018-07-31T09:18:57.205Z,30.12
2018-07-31T09:21:25.982Z,30.14
2018-07-31T09:23:54.746Z,30.42
2018-07-31T09:26:23.589Z,30.33
2018-07-31T09:28:52.462Z,29.93
2018-07-31T09:31:21.282Z,30.41
2018-07-31T09:33:50.074Z,30.89
2018-07-31T09:36:18.903Z,31.01
2018-07-31T09:38:47.813Z,31.76
2018-07-31T09:41:16.484Z,32.05
2018-07-31T09:43:45.323Z,31.93
2018-07-31T09:46:14.137Z,31.47
2018-07-31T09:48:43.265Z,31.71
2018-07-31T09:51:12.033Z,31.61
2018-07-31T09:53:40.926Z,31.91
2018-07-31T09:56:09.728Z,31.07
2018-07-31T09:58:38.567Z,31.22
2018-07-31T10:01:13.203Z,31.40
2018-07-31T10:03:42.064Z,32.08
2018-07-31T10:06:11.187Z,31.17
2018-07-31T10:08:39.998Z,31.78
2018-07-31T10:11:08.788Z,31.96
2018-07-31T10:13:37.623Z,32.04
2018-07-31T10:16:06.674Z,32.54
2018-07-31T10:18:35.844Z,32.64
2018-07-31T10:21:04.646Z,32.98
2018-07-31T10:23:33.418Z,33.03
2018-07-31T10:26:02.229Z,32.92
2018-07-31T10:28:31.162Z,32.59
2018-07-31T10:31:00.207Z,32.21
2018-07-31T10:33:28.815Z,31.90
2018-07-31T10:35:57.662Z,32.43
2018-07-31T10:38:26.467Z,31.31
2018-07-31T10:40:55.363Z,31.64
2018-07-31T10:43:24.173Z,31.66
2018-07-31T10:45:54.996Z,31.63
2018-07-31T10:48:23.761Z,32.24
2018-07-31T10:50:52.596Z,32.06
2018-07-31T10:53:21.437Z,31.92
2018-07-31T10:55:50.264Z,32.63
2018-07-31T10:58:19.095Z,32.52
2018-07-31T11:00:47.754Z,32.49
2018-07-31T11:03:16.571Z,32.42
2018-07-31T11:05:45.449Z,32.83
2018-07-31T11:08:14.062Z,32.62
2018-07-31T11:10:42.925Z,32.66
2018-07-31T11:13:11.826Z,32.72
2018-07-31T11:15:40.635Z,32.17
2018-07-31T11:18:09.350Z,32.61
2018-07-31T11:20:38.125Z,32.59
2018-07-31T11:23:07.099Z,32.21
2018-07-31T11:25:35.901Z,32.12
2018-07-31T11:28:04.752Z,32.66
2018-07-31T11:30:33.579Z,32.50
2018-07-31T11:33:02.441Z,32.80
2018-07-31T11:35:31.077Z,32.96
2018-07-31T11:37:59.904Z,32.84
2018-07-31T11:40:28.731Z,32.84
2018-07-31T11:42:57.634Z,32.90
2018-07-31T11:45:32.758Z,33.20
2018-07-31T11:48:01.855Z,33.12
2018-07-31T11:50:30.692Z,33.00
2018-07-31T11:52:59.700Z,33.83
2018-07-31T11:55:28.515Z,33.84
2018-07-31T11:57:57.302Z,33.62
2018-07-31T12:00:25.929Z,33.57
2018-07-31T12:02:54.814Z,33.56
2018-07-31T12:05:23.735Z,33.91
2018-07-31T12:07:52.493Z,33.76
2018-07-31T12:10:21.358Z,33.38
2018-07-31T12:12:50.053Z,33.47
2018-07-31T12:15:18.929Z,34.16
2018-07-31T12:17:47.863Z,34.33
2018-07-31T12:20:16.714Z,34.74
2018-07-31T12:22:45.340Z,35.00
2018-07-31T12:25:14.152Z,35.29
2018-07-31T12:27:42.991Z,34.97
2018-07-31T12:30:11.863Z,35.02
2018-07-31T12:32:41.228Z,35.08
2018-07-31T12:35:10.367Z,35.21
2018-07-31T12:37:39.253Z,35.20
2018-07-31T12:40:08.329Z,34.34
2018-07-31T12:42:37.239Z,34.66
2018-07-31T12:45:06.084Z,34.40
2018-07-31T12:47:34.727Z,34.36
2018-07-31T12:50:03.936Z,34.54
2018-07-31T12:52:32.760Z,34.45
2018-07-31T12:55:01.619Z,34.46
2018-07-31T12:57:30.245Z,34.90
2018-07-31T12:59:59.233Z,34.44
2018-07-31T13:02:28.077Z,34.03
2018-07-31T13:04:56.825Z,34.48
2018-07-31T13:07:26.852Z,34.48
2018-07-31T13:09:55.667Z,33.73
2018-07-31T13:12:24.539Z,34.21
2018-07-31T13:14:53.343Z,34.14
2018-07-31T13:17:22.292Z,34.17
2018-07-31T13:19:51.177Z,34.62
2018-07-31T13:22:19.979Z,34.66
2018-07-31T13:24:49.168Z,34.59
2018-07-31T13:27:18.008Z,34.56
2018-07-31T13:29:46.907Z,34.64
2018-07-31T13:32:15.766Z,34.50
2018-07-31T13:34:44.627Z,34.56
2018-07-31T13:37:13.511Z,34.64
2018-07-31T13:39:42.306Z,34.28
2018-07-31T13:42:11.165Z,34.30
2018-07-31T13:44:40.008Z,34.29
2018-07-31T13:47:08.837Z,34.16
2018-07-31T13:49:37.614Z,34.00
2018-07-31T13:52:06.617Z,34.00
2018-07-31T13:54:35.712Z,34.07
2018-07-31T13:57:04.592Z,34.18
2018-07-31T13:59:33.363Z,34.36
2018-07-31T14:02:02.168Z,34.68
2018-07-31T14:04:30.954Z,34.82
2018-07-31T14:06:59.775Z,34.79
2018-07-31T14:09:28.632Z,34.83
2018-07-31T14:11:57.521Z,34.90
2018-07-31T14:14:26.587Z,34.84
2018-07-31T14:16:55.420Z,34.92
2018-07-31T14:19:24.195Z,34.87
2018-07-31T14:21:53.122Z,34.60
2018-07-31T14:24:21.989Z,34.27
2018-07-31T14:26:50.862Z,34.27
2018-07-31T14:29:19.658Z,34.38
2018-07-31T14:31:48.451Z,34.65
2018-07-31T14:34:17.159Z,34.86
2018-07-31T14:36:45.974Z,34.84
2018-07-31T14:39:14.867Z,34.82
2018-07-31T14:41:43.894Z,35.19
2018-07-31T14:44:13.770Z,35.21
2018-07-31T14:46:42.626Z,34.84
2018-07-31T14:49:11.429Z,34.56
2018-07-31T14:51:40.274Z,34.58
2018-07-31T14:54:09.165Z,34.67
2018-07-31T14:56:37.807Z,34.76
2018-07-31T14:59:06.692Z,34.06
2018-07-31T15:01:35.515Z,34.05
2018-07-31T15:04:04.203Z,33.53
2018-07-31T15:06:33.026Z,33.41
2018-07-31T15:09:01.883Z,33.24
2018-07-31T15:11:30.865Z,33.18
2018-07-31T15:13:59.661Z,33.18
2018-07-31T15:16:28.626Z,32.79
2018-07-31T15:18:57.494Z,31.99
2018-07-31T15:21:27.472Z,31.61
2018-07-31T15:23:56.370Z,31.10
2018-07-31T15:26:24.968Z,31.46
2018-07-31T15:28:53.811Z,31.18
2018-07-31T15:31:22.612Z,31.08
2018-07-31T15:33:51.500Z,30.82
2018-07-31T15:36:20.451Z,30.63
2018-07-31T15:38:49.339Z,31.15
2018-07-31T15:41:18.170Z,31.17
2018-07-31T15:43:47.038Z,31.05
2018-07-31T15:46:19.590Z,30.74
2018-07-31T15:48:48.467Z,30.46
2018-07-31T15:51:17.256Z,30.46
2018-07-31T15:53:45.917Z,30.27
2018-07-31T15:56:14.740Z,30.14
2018-07-31T15:58:43.590Z,30.27
2018-07-31T16:01:12.690Z,29.79
2018-07-31T16:03:41.518Z,30.06
2018-07-31T16:06:10.222Z,29.92
2018-07-31T16:08:39.141Z,29.63
2018-07-31T16:11:08.032Z,29.76
2018-07-31T16:13:36.928Z,29.30
2018-07-31T16:16:06.136Z,29.14
2018-07-31T16:18:34.946Z,29.30
2018-07-31T16:21:04.480Z,29.36
2018-07-31T16:23:33.264Z,29.11
2018-07-31T16:26:02.180Z,29.00
2018-07-31T16:28:30.999Z,28.86
2018-07-31T16:30:59.861Z,28.58
2018-07-31T16:33:28.678Z,28.55
2018-07-31T16:35:57.518Z,28.92
2018-07-31T16:38:26.726Z,28.53
2018-07-31T16:40:55.666Z,28.43
2018-07-31T16:43:24.487Z,28.81
2018-07-31T16:45:59.366Z,28.51
2018-07-31T16:48:28.302Z,28.42
2018-07-31T16:50:57.107Z,28.44
2018-07-31T16:53:25.746Z,28.42
2018-07-31T16:55:54.567Z,28.17
2018-07-31T16:58:23.459Z,27.87
2018-07-31T17:00:52.385Z,27.70
2018-07-31T17:03:21.024Z,27.84
2018-07-31T17:05:50.162Z,27.99
2018-07-31T17:08:18.958Z,27.77
2018-07-31T17:10:47.819Z,27.71
2018-07-31T17:13:16.717Z,27.81
2018-07-31T17:15:45.613Z,27.56
2018-07-31T17:18:16.874Z,27.71
2018-07-31T17:20:45.738Z,27.70
2018-07-31T17:23:14.558Z,27.61
2018-07-31T17:25:43.463Z,27.75
2018-07-31T17:28:12.315Z,27.64
2018-07-31T17:30:41.120Z,27.68
2018-07-31T17:33:10.081Z,27.39
2018-07-31T17:35:38.944Z,27.46
2018-07-31T17:38:07.712Z,27.61
2018-07-31T17:40:36.660Z,27.52
2018-07-31T17:43:05.612Z,27.35
2018-07-31T17:45:40.411Z,27.32
2018-07-31T17:48:09.458Z,27.46
2018-07-31T17:50:38.227Z,27.41
2018-07-31T17:53:07.083Z,27.17
2018-07-31T17:55:35.677Z,27.24
2018-07-31T17:58:04.545Z,27.16
2018-07-31T18:00:33.415Z,27.11
2018-07-31T18:03:02.247Z,27.22
2018-07-31T18:05:32.007Z,27.14
2018-07-31T18:08:01.055Z,26.90
2018-07-31T18:10:29.710Z,26.92
2018-07-31T18:12:58.593Z,26.81
2018-07-31T18:15:27.399Z,26.75
2018-07-31T18:17:56.214Z,26.59
2018-07-31T18:20:24.870Z,26.60
2018-07-31T18:22:53.884Z,26.59
2018-07-31T18:25:22.820Z,26.54
2018-07-31T18:27:52.318Z,26.58
2018-07-31T18:30:21.324Z,26.50
2018-07-31T18:32:50.113Z,26.19
2018-07-31T18:35:19.107Z,26.30
2018-07-31T18:37:47.993Z,26.28
2018-07-31T18:40:17.171Z,26.22
2018-07-31T18:42:45.806Z,26.08
2018-07-31T18:45:14.619Z,25.93
2018-07-31T18:47:44.007Z,25.84
2018-07-31T18:50:12.854Z,25.81
2018-07-31T18:52:41.610Z,25.78
2018-07-31T18:55:10.650Z,25.70
2018-07-31T18:57:39.403Z,25.46
2018-07-31T19:00:08.128Z,25.32
2018-07-31T19:02:36.971Z,25.23
2018-07-31T19:05:05.843Z,25.23
2018-07-31T19:07:34.668Z,25.13
2018-07-31T19:10:03.624Z,24.86
2018-07-31T19:12:32.392Z,24.70
2018-07-31T19:15:01.691Z,24.61
2018-07-31T19:17:30.747Z,24.70
2018-07-31T19:19:59.353Z,24.61
2018-07-31T19:22:28.349Z,24.39
2018-07-31T19:24:57.160Z,24.24
2018-07-31T19:27:25.857Z,24.11
2018-07-31T19:29:54.649Z,24.01
2018-07-31T19:32:23.481Z,23.98
2018-07-31T19:34:52.108Z,24.16
2018-07-31T19:37:20.979Z,23.96
2018-07-31T19:39:49.891Z,23.79
2018-07-31T19:42:18.963Z,23.60
2018-07-31T19:44:47.813Z,23.50
2018-07-31T19:47:16.598Z,23.39
2018-07-31T19:49:46.035Z,23.46
2018-07-31T19:52:15.594Z,23.39
2018-07-31T19:54:44.546Z,23.45
2018-07-31T19:57:13.148Z,23.36
2018-07-31T19:59:42.438Z,23.27
2018-07-31T20:02:11.094Z,23.22
2018-07-31T20:04:39.909Z,23.16
2018-07-31T20:07:08.541Z,22.97
2018-07-31T20:09:37.343Z,23.06
2018-07-31T20:12:06.333Z,22.93
2018-07-31T20:14:35.447Z,22.85
2018-07-31T20:17:04.379Z,22.96
2018-07-31T20:19:33.054Z,22.90
2018-07-31T20:22:02.166Z,22.82
2018-07-31T20:24:30.944Z,22.72
2018-07-31T20:26:59.621Z,22.68
2018-07-31T20:29:28.490Z,22.74
2018-07-31T20:31:57.616Z,22.36
2018-07-31T20:34:26.198Z,22.53
2018-07-31T20:36:55.094Z,22.52
2018-07-31T20:39:23.906Z,22.41
2018-07-31T20:41:52.773Z,22.46
2018-07-31T20:44:21.384Z,22.47
2018-07-31T20:46:50.207Z,22.44
2018-07-31T20:49:18.952Z,22.39
2018-07-31T20:51:47.787Z,22.37
2018-07-31T20:54:16.594Z,22.36
2018-07-31T20:56:45.532Z,22.28
2018-07-31T20:59:14.288Z,22.43
2018-07-31T21:01:43.110Z,22.09
2018-07-31T21:04:11.870Z,22.29
2018-07-31T21:06:40.781Z,21.98
2018-07-31T21:09:11.137Z,22.07
2018-07-31T21:11:40.233Z,22.02
2018-07-31T21:14:09.063Z,21.89
2018-07-31T21:16:37.847Z,21.93
2018-07-31T21:19:06.828Z,21.95
2018-07-31T21:21:35.596Z,21.90
2018-07-31T21:24:04.400Z,21.77
2018-07-31T21:26:33.660Z,21.98
2018-07-31T21:29:02.306Z,21.91
2018-07-31T21:31:31.179Z,21.92
2018-07-31T21:33:59.980Z,21.69
2018-07-31T21:36:28.747Z,21.75
2018-07-31T21:38:57.636Z,21.74
2018-07-31T21:41:26.687Z,21.80
2018-07-31T21:43:55.597Z,21.84
2018-07-31T21:46:24.200Z,21.71
2018-07-31T21:48:53.016Z,21.86
2018-07-31T21:51:21.804Z,21.84
2018-07-31T21:53:50.622Z,21.93
2018-07-31T21:56:19.482Z,22.00
2018-07-31T21:58:48.318Z,21.81
2018-07-31T22:01:16.936Z,21.65
2018-07-31T22:03:45.699Z,21.54
2018-07-31T22:06:14.516Z,21.53
2018-07-31T22:08:43.380Z,21.63
2018-07-31T22:11:12.123Z,21.55
2018-07-31T22:13:40.859Z,21.54
2018-07-31T22:16:09.696Z,21.47
2018-07-31T22:18:38.502Z,21.57
2018-07-31T22:21:07.294Z,21.50
2018-07-31T22:23:36.140Z,21.49
2018-07-31T22:26:05.243Z,21.24
2018-07-31T22:28:34.065Z,21.40
2018-07-31T22:31:02.843Z,21.31
2018-07-31T22:33:31.762Z,21.28
2018-07-31T22:36:00.550Z,21.27
2018-07-31T22:38:29.359Z,21.00
2018-07-31T22:40:58.017Z,20.87
2018-07-31T22:43:26.803Z,20.91
2018-07-31T22:46:01.448Z,20.95
2018-07-31T22:48:30.204Z,20.92
2018-07-31T22:50:59.014Z,21.05
2018-07-31T22:53:27.768Z,21.01
2018-07-31T22:55:56.664Z,20.89
2018-07-31T22:58:25.412Z,20.91
2018-07-31T23:00:54.217Z,20.97
2018-07-31T23:03:22.995Z,21.15
2018-07-31T23:05:51.746Z,21.11
2018-07-31T23:08:20.548Z,20.91
2018-07-31T23:10:49.352Z,21.07
2018-07-31T23:13:18.109Z,21.09
2018-07-31T23:15:46.976Z,20.76
2018-07-31T23:18:15.803Z,21.06
2018-07-31T23:20:44.886Z,20.90
2018-07-31T23:23:13.650Z,20.97
2018-07-31T23:25:42.475Z,20.82
2018-07-31T23:28:11.279Z,20.94
2018-07-31T23:30:40.032Z,20.64
2018-07-31T23:33:09.116Z,20.70
2018-07-31T23:35:37.907Z,20.98
2018-07-31T23:38:06.859Z,20.94
2018-07-31T23:40:35.688Z,20.81
2018-07-31T23:43:04.427Z,20.72
2018-07-31T23:45:39.302Z,20.59
2018-07-31T23:48:08.071Z,20.84
2018-07-31T23:50:36.875Z,20.90
2018-07-31T23:53:05.670Z,20.72
2018-07-31T23:55:34.433Z,20.75
2018-07-31T23:58:03.298Z,20.74
